createdAt,value
2019-05-12T00:00:43.674Z,3.90
2019-05-12T00:01:38.989Z,2.73
2019-05-12T00:01:43.697Z,3.70
2019-05-12T00:02:43.703Z,3.60
2019-05-12T00:03:43.745Z,3.60
2019-05-12T00:04:08.352Z,3.43
2019-05-12T00:04:43.740Z,3.70
2019-05-12T00:05:43.747Z,3.70
2019-05-12T00:06:38.734Z,3.43
2019-05-12T00:06:43.771Z,3.40
2019-05-12T00:07:43.781Z,3.70
2019-05-12T00:08:43.793Z,3.80
2019-05-12T00:09:08.367Z,3.97
2019-05-12T00:09:43.806Z,3.70
2019-05-12T00:10:43.823Z,4.00
2019-05-12T00:11:37.922Z,2.97
2019-05-12T00:11:43.844Z,3.80
2019-05-12T00:12:43.853Z,3.90
2019-05-12T00:13:43.871Z,3.80
2019-05-12T00:14:08.705Z,3.47
2019-05-12T00:14:43.885Z,3.70
2019-05-12T00:15:43.899Z,3.70
2019-05-12T00:16:38.377Z,3.50
2019-05-12T00:16:43.918Z,3.50
2019-05-12T00:17:44.069Z,3.40
2019-05-12T00:18:43.945Z,3.70
2019-05-12T00:19:09.302Z,3.33
2019-05-12T00:19:43.965Z,3.70
2019-05-12T00:20:43.976Z,3.50
2019-05-12T00:21:39.955Z,3.60
2019-05-12T00:21:43.990Z,3.80
2019-05-12T00:22:44.006Z,3.70
2019-05-12T00:23:44.027Z,3.70
2019-05-12T00:24:11.724Z,3.47
2019-05-12T00:24:44.043Z,3.50
2019-05-12T00:25:44.050Z,3.90
2019-05-12T00:26:41.246Z,3.00
2019-05-12T00:26:44.066Z,3.60
2019-05-12T00:27:44.081Z,4.30
2019-05-12T00:28:44.097Z,3.80
2019-05-12T00:29:10.243Z,3.13
2019-05-12T00:29:44.112Z,3.40
2019-05-12T00:30:44.127Z,3.30
2019-05-12T00:31:39.209Z,4.10
2019-05-12T00:31:44.147Z,3.50
2019-05-12T00:32:44.162Z,4.20
2019-05-12T00:33:44.169Z,4.70
2019-05-12T00:34:08.204Z,4.00
2019-05-12T00:34:44.188Z,3.80
2019-05-12T00:35:44.202Z,4.00
2019-05-12T00:36:37.996Z,4.17
2019-05-12T00:36:44.220Z,3.70
2019-05-12T00:37:44.242Z,4.00
2019-05-12T00:38:44.263Z,3.90
2019-05-12T00:39:08.561Z,4.00
2019-05-12T00:39:44.298Z,3.90
2019-05-12T00:40:44.291Z,3.70
2019-05-12T00:41:38.895Z,3.33
2019-05-12T00:41:44.666Z,3.30
2019-05-12T00:42:44.309Z,4.00
2019-05-12T00:43:44.444Z,4.20
2019-05-12T00:44:08.795Z,3.40
2019-05-12T00:44:44.337Z,4.60
2019-05-12T00:45:44.350Z,4.60
2019-05-12T00:46:38.573Z,3.23
2019-05-12T00:46:44.367Z,4.50
2019-05-12T00:47:44.380Z,3.70
2019-05-12T00:48:44.401Z,4.60
2019-05-12T00:49:08.137Z,3.57
2019-05-12T00:49:44.410Z,3.50
2019-05-12T00:50:44.424Z,3.80
2019-05-12T00:51:38.317Z,3.77
2019-05-12T00:51:44.449Z,4.00
2019-05-12T00:52:44.456Z,4.10
2019-05-12T00:53:44.470Z,4.60
2019-05-12T00:54:09.199Z,3.70
2019-05-12T00:54:44.485Z,3.70
2019-05-12T00:55:44.502Z,3.80
2019-05-12T00:56:39.155Z,3.50
2019-05-12T00:56:44.519Z,3.90
2019-05-12T00:57:44.530Z,4.10
2019-05-12T00:58:44.541Z,4.00
2019-05-12T00:59:08.599Z,3.27
2019-05-12T00:59:44.560Z,3.90
2019-05-12T01:00:44.579Z,3.80
2019-05-12T01:01:38.064Z,3.23
2019-05-12T01:01:44.590Z,4.10
2019-05-12T01:02:44.602Z,3.60
2019-05-12T01:03:44.614Z,3.70
2019-05-12T01:04:08.873Z,2.83
2019-05-12T01:04:44.636Z,4.00
2019-05-12T01:05:44.655Z,3.30
2019-05-12T01:06:38.665Z,3.57
2019-05-12T01:06:44.660Z,4.10
2019-05-12T01:07:44.674Z,3.40
2019-05-12T01:08:44.703Z,3.60
2019-05-12T01:09:08.860Z,2.90
2019-05-12T01:09:44.710Z,3.40
2019-05-12T01:10:44.725Z,3.10
2019-05-12T01:11:44.745Z,3.00
2019-05-12T01:12:01.296Z,3.03
2019-05-12T01:12:44.763Z,3.70
2019-05-12T01:13:44.769Z,3.70
2019-05-12T01:14:30.180Z,3.90
2019-05-12T01:14:44.779Z,3.70
2019-05-12T01:15:44.792Z,4.00
2019-05-12T01:16:44.809Z,3.90
2019-05-12T01:16:59.047Z,3.23
2019-05-12T01:17:44.831Z,3.40
2019-05-12T01:18:44.879Z,4.20
2019-05-12T01:19:28.808Z,3.23
2019-05-12T01:19:44.849Z,4.30
2019-05-12T01:20:44.871Z,4.40
2019-05-12T01:21:44.881Z,4.30
2019-05-12T01:21:58.696Z,4.00
2019-05-12T01:22:44.893Z,4.20
2019-05-12T01:23:56.395Z,4.00
2019-05-12T01:24:28.331Z,3.90
2019-05-12T01:24:44.927Z,4.30
2019-05-12T01:25:44.937Z,4.20
2019-05-12T01:26:44.952Z,4.00
2019-05-12T01:26:58.261Z,3.90
2019-05-12T01:27:44.965Z,4.10
2019-05-12T01:28:44.985Z,4.00
2019-05-12T01:29:28.187Z,4.00
2019-05-12T01:29:44.995Z,4.20
2019-05-12T01:30:45.015Z,4.20
2019-05-12T01:31:45.023Z,4.20
2019-05-12T01:32:10.681Z,4.20
2019-05-12T01:32:45.050Z,4.00
2019-05-12T01:33:45.056Z,4.00
2019-05-12T01:34:39.520Z,3.80
2019-05-12T01:34:45.067Z,4.20
2019-05-12T01:35:45.083Z,4.20
2019-05-12T01:36:45.099Z,3.80
2019-05-12T01:37:23.420Z,3.30
2019-05-12T01:37:45.112Z,4.50
2019-05-12T01:38:45.133Z,4.00
2019-05-12T01:39:45.145Z,3.30
2019-05-12T01:39:52.567Z,3.93
2019-05-12T01:40:45.154Z,3.70
2019-05-12T01:41:45.169Z,3.60
2019-05-12T01:42:21.484Z,4.30
2019-05-12T01:42:45.182Z,3.80
2019-05-12T01:43:45.211Z,3.90
2019-05-12T01:44:45.215Z,4.00
2019-05-12T01:44:50.487Z,3.60
2019-05-12T01:45:45.241Z,3.60
2019-05-12T01:46:45.248Z,4.00
2019-05-12T01:47:19.368Z,3.70
2019-05-12T01:47:45.259Z,4.30
2019-05-12T01:48:45.272Z,3.40
2019-05-12T01:49:45.287Z,3.90
2019-05-12T01:49:48.796Z,3.93
2019-05-12T01:50:47.448Z,3.90
2019-05-12T01:51:47.540Z,3.70
2019-05-12T01:52:17.878Z,4.43
2019-05-12T01:52:47.701Z,3.70
2019-05-12T01:53:45.347Z,4.30
2019-05-12T01:54:45.369Z,3.70
2019-05-12T01:54:48.336Z,3.63
2019-05-12T01:55:45.376Z,4.20
2019-05-12T01:56:45.388Z,3.80
2019-05-12T01:57:18.850Z,3.57
2019-05-12T01:57:45.410Z,3.50
2019-05-12T01:58:45.418Z,4.20
2019-05-12T01:59:45.436Z,4.20
2019-05-12T01:59:48.423Z,3.60
2019-05-12T02:00:45.445Z,4.00
2019-05-12T02:01:45.470Z,3.90
2019-05-12T02:02:17.919Z,3.77
2019-05-12T02:02:47.895Z,3.80
2019-05-12T02:03:45.491Z,3.60
2019-05-12T02:04:45.512Z,4.00
2019-05-12T02:05:04.610Z,3.63
2019-05-12T02:05:45.526Z,4.30
2019-05-12T02:06:45.537Z,4.20
2019-05-12T02:07:38.269Z,3.53
2019-05-12T02:07:47.816Z,4.20
2019-05-12T02:08:47.654Z,3.90
2019-05-12T02:09:48.007Z,3.70
2019-05-12T02:10:09.089Z,3.47
2019-05-12T02:10:47.978Z,3.40
2019-05-12T02:11:45.613Z,4.50
2019-05-12T02:12:38.349Z,3.60
2019-05-12T02:12:45.628Z,4.10
2019-05-12T02:13:45.638Z,3.80
2019-05-12T02:14:45.650Z,4.10
2019-05-12T02:15:08.138Z,3.30
2019-05-12T02:15:45.667Z,3.50
2019-05-12T02:16:47.601Z,3.80
2019-05-12T02:17:39.125Z,3.73
2019-05-12T02:17:47.972Z,3.60
2019-05-12T02:18:45.711Z,4.20
2019-05-12T02:19:47.991Z,3.60
2019-05-12T02:20:08.167Z,3.47
2019-05-12T02:20:45.739Z,4.20
2019-05-12T02:21:45.753Z,3.80
2019-05-12T02:22:38.857Z,3.00
2019-05-12T02:22:47.781Z,3.30
2019-05-12T02:23:47.668Z,3.60
2019-05-12T02:24:47.770Z,3.30
2019-05-12T02:25:08.179Z,4.20
2019-05-12T02:25:48.136Z,3.90
2019-05-12T02:26:45.830Z,3.50
2019-05-12T02:27:38.385Z,3.43
2019-05-12T02:27:47.623Z,4.20
2019-05-12T02:28:47.905Z,3.40
2019-05-12T02:29:48.038Z,3.20
2019-05-12T02:30:09.764Z,4.43
2019-05-12T02:30:45.887Z,3.80
2019-05-12T02:31:45.923Z,3.60
2019-05-12T02:32:48.644Z,3.00
2019-05-12T02:32:52.478Z,3.90
2019-05-12T02:33:45.936Z,3.80
2019-05-12T02:34:45.951Z,3.30
2019-05-12T02:35:08.897Z,3.47
2019-05-12T02:35:45.963Z,3.90
2019-05-12T02:36:45.994Z,4.10
2019-05-12T02:37:37.880Z,3.60
2019-05-12T02:37:45.994Z,3.50
2019-05-12T02:38:46.006Z,4.10
2019-05-12T02:39:46.020Z,3.70
2019-05-12T02:40:07.312Z,3.63
2019-05-12T02:40:46.038Z,3.50
2019-05-12T02:41:46.057Z,3.80
2019-05-12T02:42:36.364Z,4.17
2019-05-12T02:42:46.672Z,3.70
2019-05-12T02:43:46.176Z,4.00
2019-05-12T02:44:46.107Z,3.90
2019-05-12T02:45:05.905Z,3.23
2019-05-12T02:45:46.113Z,4.20
2019-05-12T02:46:46.132Z,3.70
2019-05-12T02:47:34.941Z,3.63
2019-05-12T02:47:46.140Z,3.70
2019-05-12T02:48:46.162Z,3.50
2019-05-12T02:49:46.185Z,4.20
2019-05-12T02:50:05.344Z,3.20
2019-05-12T02:50:46.196Z,4.00
2019-05-12T02:51:46.203Z,3.60
2019-05-12T02:52:34.870Z,3.83
2019-05-12T02:52:46.222Z,3.80
2019-05-12T02:53:47.279Z,3.70
2019-05-12T02:54:55.279Z,4.20
2019-05-12T02:55:05.952Z,3.43
2019-05-12T02:55:46.270Z,3.60
2019-05-12T02:56:46.285Z,3.80
2019-05-12T02:57:34.520Z,3.67
2019-05-12T02:57:46.295Z,4.30
2019-05-12T02:58:46.304Z,3.80
2019-05-12T02:59:46.325Z,4.20
2019-05-12T03:00:05.277Z,3.50
2019-05-12T03:00:46.342Z,4.10
2019-05-12T03:01:46.357Z,4.00
2019-05-12T03:02:35.669Z,3.87
2019-05-12T03:02:46.369Z,4.00
2019-05-12T03:03:46.383Z,4.00
2019-05-12T03:04:46.398Z,3.70
2019-05-12T03:05:05.682Z,3.77
2019-05-12T03:05:46.418Z,4.00
2019-05-12T03:06:46.428Z,4.10
2019-05-12T03:07:35.278Z,3.43
2019-05-12T03:07:46.447Z,3.90
2019-05-12T03:08:46.466Z,4.10
2019-05-12T03:09:46.474Z,4.40
2019-05-12T03:10:05.202Z,3.50
2019-05-12T03:10:46.490Z,3.90
2019-05-12T03:11:46.506Z,4.60
2019-05-12T03:12:34.560Z,4.33
2019-05-12T03:12:46.526Z,4.00
2019-05-12T03:13:46.535Z,4.00
2019-05-12T03:14:46.552Z,4.00
2019-05-12T03:15:05.492Z,3.60
2019-05-12T03:15:46.563Z,3.90
2019-05-12T03:16:46.581Z,4.40
2019-05-12T03:17:35.470Z,3.63
2019-05-12T03:17:46.594Z,4.40
2019-05-12T03:18:46.613Z,4.20
2019-05-12T03:19:46.631Z,3.70
2019-05-12T03:20:05.232Z,4.00
2019-05-12T03:20:46.652Z,4.00
2019-05-12T03:21:46.657Z,4.40
2019-05-12T03:22:35.288Z,4.13
2019-05-12T03:22:46.674Z,4.00
2019-05-12T03:23:46.688Z,4.10
2019-05-12T03:25:05.942Z,4.90
2019-05-12T03:25:15.460Z,3.40
2019-05-12T03:25:46.725Z,4.40
2019-05-12T03:26:46.734Z,4.30
2019-05-12T03:27:35.338Z,4.00
2019-05-12T03:27:46.759Z,3.90
2019-05-12T03:28:46.761Z,3.80
2019-05-12T03:29:46.772Z,4.30
2019-05-12T03:30:10.022Z,3.83
2019-05-12T03:30:48.847Z,4.60
2019-05-12T03:31:48.796Z,4.20
2019-05-12T03:32:37.755Z,4.23
2019-05-12T03:32:47.839Z,4.60
2019-05-12T03:33:52.915Z,5.00
2019-05-12T03:34:47.784Z,4.60
2019-05-12T03:35:08.733Z,4.87
2019-05-12T03:35:53.035Z,4.70
2019-05-12T03:36:51.324Z,4.60
2019-05-12T03:37:36.364Z,5.37
2019-05-12T03:37:47.089Z,4.90
2019-05-12T03:38:46.983Z,4.90
2019-05-12T03:39:46.956Z,4.70
2019-05-12T03:40:05.691Z,4.03
2019-05-12T03:40:46.948Z,5.20
2019-05-12T03:41:46.955Z,4.70
2019-05-12T03:42:35.538Z,4.93
2019-05-12T03:42:46.973Z,5.60
2019-05-12T03:43:47.009Z,5.70
2019-05-12T03:44:47.004Z,4.60
2019-05-12T03:45:04.913Z,5.10
2019-05-12T03:45:47.021Z,5.30
2019-05-12T03:46:47.037Z,5.00
2019-05-12T03:47:35.604Z,4.83
2019-05-12T03:47:47.051Z,5.20
2019-05-12T03:48:47.065Z,4.50
2019-05-12T03:49:47.136Z,5.70
2019-05-12T03:50:04.865Z,4.63
2019-05-12T03:50:47.100Z,5.10
2019-05-12T03:51:47.107Z,5.00
2019-05-12T03:52:35.001Z,5.43
2019-05-12T03:52:47.124Z,4.70
2019-05-12T03:53:47.182Z,4.80
2019-05-12T03:54:47.155Z,5.30
2019-05-12T03:55:05.609Z,4.67
2019-05-12T03:55:47.479Z,4.90
2019-05-12T03:56:47.183Z,5.00
2019-05-12T03:57:34.860Z,4.80
2019-05-12T03:57:47.202Z,5.30
2019-05-12T03:58:47.225Z,4.70
2019-05-12T03:59:47.233Z,5.40
2019-05-12T04:00:05.200Z,5.13
2019-05-12T04:00:47.255Z,5.30
2019-05-12T04:01:47.263Z,5.10
2019-05-12T04:02:34.359Z,4.50
2019-05-12T04:02:47.277Z,4.60
2019-05-12T04:03:47.293Z,5.30
2019-05-12T04:04:47.314Z,5.40
2019-05-12T04:05:05.220Z,4.87
2019-05-12T04:05:47.323Z,5.50
2019-05-12T04:06:47.344Z,5.20
2019-05-12T04:07:34.511Z,5.33
2019-05-12T04:07:47.354Z,5.10
2019-05-12T04:08:47.368Z,5.30
2019-05-12T04:09:47.384Z,5.30
2019-05-12T04:10:05.269Z,5.07
2019-05-12T04:10:47.397Z,5.50
2019-05-12T04:11:47.417Z,5.50
2019-05-12T04:12:34.895Z,4.60
2019-05-12T04:12:47.435Z,5.00
2019-05-12T04:13:47.444Z,5.30
2019-05-12T04:14:47.464Z,4.70
2019-05-12T04:15:05.059Z,4.70
2019-05-12T04:15:47.479Z,5.20
2019-05-12T04:16:47.496Z,5.30
2019-05-12T04:17:35.144Z,5.20
2019-05-12T04:17:47.510Z,5.30
2019-05-12T04:18:47.522Z,5.80
2019-05-12T04:19:47.536Z,4.80
2019-05-12T04:20:04.986Z,5.20
2019-05-12T04:20:47.552Z,5.60
2019-05-12T04:21:47.574Z,5.80
2019-05-12T04:22:35.130Z,4.63
2019-05-12T04:22:47.577Z,4.90
2019-05-12T04:23:47.599Z,5.00
2019-05-12T04:24:47.611Z,5.20
2019-05-12T04:25:06.057Z,4.60
2019-05-12T04:25:52.887Z,5.40
2019-05-12T04:26:47.639Z,5.50
2019-05-12T04:27:35.067Z,5.60
2019-05-12T04:27:47.659Z,5.10
2019-05-12T04:28:47.677Z,5.50
2019-05-12T04:29:47.688Z,5.70
2019-05-12T04:30:05.431Z,4.93
2019-05-12T04:30:47.751Z,5.10
2019-05-12T04:31:47.722Z,5.00
2019-05-12T04:32:35.834Z,4.93
2019-05-12T04:32:47.735Z,5.10
2019-05-12T04:33:47.755Z,5.20
2019-05-12T04:34:47.763Z,5.10
2019-05-12T04:35:05.086Z,4.97
2019-05-12T04:35:47.786Z,5.20
2019-05-12T04:36:47.794Z,5.70
2019-05-12T04:37:35.285Z,4.80
2019-05-12T04:37:47.810Z,4.90
2019-05-12T04:38:47.828Z,4.40
2019-05-12T04:39:47.875Z,4.90
2019-05-12T04:40:05.456Z,4.70
2019-05-12T04:40:47.856Z,5.40
2019-05-12T04:41:47.894Z,5.00
2019-05-12T04:42:35.095Z,4.50
2019-05-12T04:42:47.900Z,5.00
2019-05-12T04:43:47.909Z,5.30
2019-05-12T04:44:47.930Z,5.80
2019-05-12T04:45:04.811Z,5.13
2019-05-12T04:45:47.953Z,5.10
2019-05-12T04:46:47.946Z,5.30
2019-05-12T04:47:34.900Z,5.63
2019-05-12T04:47:47.962Z,5.00
2019-05-12T04:48:47.981Z,4.90
2019-05-12T04:49:47.993Z,5.80
2019-05-12T04:50:05.477Z,4.87
2019-05-12T04:50:48.028Z,5.30
2019-05-12T04:51:48.030Z,5.10
2019-05-12T04:52:35.277Z,4.63
2019-05-12T04:52:48.035Z,5.20
2019-05-12T04:53:48.066Z,4.80
2019-05-12T04:54:48.078Z,5.00
2019-05-12T04:55:04.902Z,5.07
2019-05-12T04:56:06.274Z,4.90
2019-05-12T04:56:48.113Z,5.10
2019-05-12T04:57:34.743Z,4.23
2019-05-12T04:57:48.120Z,4.90
2019-05-12T04:58:48.138Z,4.60
2019-05-12T04:59:48.149Z,4.60
2019-05-12T05:00:05.270Z,5.00
2019-05-12T05:00:48.165Z,4.40
2019-05-12T05:01:48.181Z,4.80
2019-05-12T05:02:36.444Z,5.17
2019-05-12T05:02:48.195Z,4.30
2019-05-12T05:03:48.218Z,4.90
2019-05-12T05:04:48.224Z,4.90
2019-05-12T05:05:05.604Z,5.00
2019-05-12T05:05:48.238Z,4.70
2019-05-12T05:06:48.259Z,4.50
2019-05-12T05:07:35.893Z,4.53
2019-05-12T05:07:48.275Z,4.80
2019-05-12T05:08:48.303Z,4.60
2019-05-12T05:09:48.305Z,4.70
2019-05-12T05:10:05.138Z,4.57
2019-05-12T05:10:48.322Z,5.10
2019-05-12T05:11:48.344Z,4.30
2019-05-12T05:12:34.575Z,4.80
2019-05-12T05:12:48.356Z,4.50
2019-05-12T05:13:48.369Z,4.30
2019-05-12T05:14:48.385Z,4.40
2019-05-12T05:15:05.383Z,4.90
2019-05-12T05:15:48.403Z,5.10
2019-05-12T05:16:48.422Z,4.50
2019-05-12T05:17:34.857Z,4.10
2019-05-12T05:17:48.435Z,4.80
2019-05-12T05:18:48.452Z,4.30
2019-05-12T05:19:48.464Z,4.70
2019-05-12T05:20:04.152Z,4.50
2019-05-12T05:20:48.481Z,4.70
2019-05-12T05:21:48.501Z,5.00
2019-05-12T05:22:33.405Z,4.57
2019-05-12T05:22:48.509Z,4.50
2019-05-12T05:23:48.528Z,4.90
2019-05-12T05:24:48.546Z,4.90
2019-05-12T05:25:04.272Z,4.70
2019-05-12T05:25:48.566Z,4.70
2019-05-12T05:26:48.580Z,4.70
2019-05-12T05:27:34.068Z,5.03
2019-05-12T05:27:48.595Z,5.10
2019-05-12T05:28:48.614Z,4.60
2019-05-12T05:29:48.631Z,4.50
2019-05-12T05:30:04.050Z,5.03
2019-05-12T05:30:48.643Z,4.70
2019-05-12T05:31:48.660Z,4.60
2019-05-12T05:32:33.921Z,5.20
2019-05-12T05:32:48.670Z,4.40
2019-05-12T05:33:48.698Z,4.60
2019-05-12T05:34:53.689Z,4.60
2019-05-12T05:35:03.991Z,4.20
2019-05-12T05:35:48.723Z,4.80
2019-05-12T05:36:51.092Z,4.30
2019-05-12T05:37:37.029Z,4.63
2019-05-12T05:37:48.771Z,4.30
2019-05-12T05:38:51.172Z,4.80
2019-05-12T05:39:49.797Z,4.40
2019-05-12T05:40:04.204Z,4.80
2019-05-12T05:40:48.821Z,4.00
2019-05-12T05:41:50.935Z,4.30
2019-05-12T05:42:35.518Z,4.43
2019-05-12T05:42:48.846Z,4.60
2019-05-12T05:43:54.258Z,4.60
2019-05-12T05:44:48.872Z,4.30
2019-05-12T05:45:04.841Z,4.97
2019-05-12T05:45:48.897Z,4.40
2019-05-12T05:46:50.298Z,4.40
2019-05-12T05:47:33.936Z,4.47
2019-05-12T05:47:49.179Z,4.70
2019-05-12T05:48:48.941Z,3.90
2019-05-12T05:49:48.958Z,4.20
2019-05-12T05:50:04.721Z,3.73
2019-05-12T05:50:48.980Z,4.60
2019-05-12T05:51:54.339Z,4.00
2019-05-12T05:52:38.363Z,4.60
2019-05-12T05:52:49.013Z,4.30
2019-05-12T05:53:50.178Z,4.00
2019-05-12T05:54:49.047Z,4.20
2019-05-12T05:55:05.743Z,3.73
2019-05-12T05:55:50.409Z,4.10
2019-05-12T05:56:58.440Z,4.10
2019-05-12T05:57:34.452Z,3.97
2019-05-12T05:57:49.097Z,4.60
2019-05-12T05:58:51.914Z,4.20
2019-05-12T05:59:49.133Z,4.80
2019-05-12T06:00:07.130Z,4.03
2019-05-12T06:00:54.816Z,4.30
2019-05-12T06:01:51.949Z,4.50
2019-05-12T06:02:40.103Z,3.90
2019-05-12T06:02:49.192Z,3.70
2019-05-12T06:03:49.199Z,3.80
2019-05-12T06:04:49.898Z,3.70
2019-05-12T06:05:04.582Z,3.60
2019-05-12T06:05:49.240Z,3.60
2019-05-12T06:06:52.796Z,4.00
2019-05-12T06:07:38.767Z,3.47
2019-05-12T06:07:49.267Z,3.40
2019-05-12T06:08:49.294Z,4.00
2019-05-12T06:09:49.313Z,3.90
2019-05-12T06:10:04.162Z,3.60
2019-05-12T06:10:49.339Z,4.20
2019-05-12T06:11:49.344Z,3.50
2019-05-12T06:12:33.569Z,3.80
2019-05-12T06:12:50.945Z,4.30
2019-05-12T06:13:49.385Z,3.70
2019-05-12T06:14:55.207Z,3.60
2019-05-12T06:15:04.213Z,3.27
2019-05-12T06:15:49.418Z,4.00
2019-05-12T06:16:49.435Z,3.90
2019-05-12T06:17:34.132Z,3.70
2019-05-12T06:17:49.453Z,4.00
2019-05-12T06:18:49.470Z,3.80
2019-05-12T06:19:49.482Z,3.50
2019-05-12T06:20:04.432Z,3.40
2019-05-12T06:20:49.509Z,4.10
2019-05-12T06:21:49.525Z,3.70
2019-05-12T06:22:34.292Z,3.63
2019-05-12T06:22:54.570Z,3.70
2019-05-12T06:23:49.558Z,3.50
2019-05-12T06:24:54.859Z,3.60
2019-05-12T06:25:04.908Z,3.00
2019-05-12T06:25:51.609Z,3.60
2019-05-12T06:26:57.657Z,4.20
2019-05-12T06:27:36.016Z,2.60
2019-05-12T06:27:51.130Z,3.70
2019-05-12T06:28:49.656Z,3.40
2019-05-12T06:29:54.447Z,3.00
2019-05-12T06:30:06.312Z,2.63
2019-05-12T06:30:50.356Z,3.50
2019-05-12T06:31:49.717Z,3.50
2019-05-12T06:32:35.548Z,3.60
2019-05-12T06:32:51.804Z,3.50
2019-05-12T06:33:49.746Z,3.90
2019-05-12T06:34:50.833Z,4.20
2019-05-12T06:35:04.849Z,3.07
2019-05-12T06:35:49.784Z,3.50
2019-05-12T06:36:49.796Z,3.70
2019-05-12T06:37:33.978Z,2.20
2019-05-12T06:37:57.762Z,3.00
2019-05-12T06:38:49.851Z,2.50
2019-05-12T06:39:51.021Z,2.70
2019-05-12T06:40:03.615Z,2.47
2019-05-12T06:40:49.892Z,3.20
2019-05-12T06:41:49.877Z,2.90
2019-05-12T06:42:34.175Z,2.67
2019-05-12T06:42:53.971Z,3.00
2019-05-12T06:43:49.945Z,3.30
2019-05-12T06:44:54.893Z,2.90
2019-05-12T06:45:03.669Z,3.40
2019-05-12T06:45:49.967Z,2.90
2019-05-12T06:46:53.574Z,2.80
2019-05-12T06:47:34.372Z,2.20
2019-05-12T06:47:51.733Z,2.20
2019-05-12T06:48:50.022Z,2.50
2019-05-12T06:49:56.458Z,2.60
2019-05-12T06:50:03.957Z,2.27
2019-05-12T06:50:50.065Z,2.90
2019-05-12T06:51:53.783Z,3.00
2019-05-12T06:52:33.770Z,2.50
2019-05-12T06:52:50.076Z,3.10
2019-05-12T06:53:50.091Z,3.50
2019-05-12T06:54:56.425Z,3.30
2019-05-12T06:55:04.031Z,2.07
2019-05-12T06:55:50.125Z,2.40
2019-05-12T06:56:55.291Z,2.50
2019-05-12T06:57:34.249Z,2.43
2019-05-12T06:57:50.406Z,2.60
2019-05-12T06:58:50.182Z,2.70
2019-05-12T06:59:51.425Z,2.70
2019-05-12T07:00:04.540Z,1.83
2019-05-12T07:00:50.224Z,2.30
2019-05-12T07:01:54.966Z,2.30
2019-05-12T07:02:37.077Z,1.87
2019-05-12T07:02:54.739Z,2.50
2019-05-12T07:03:50.271Z,2.60
2019-05-12T07:04:56.616Z,2.60
2019-05-12T07:05:04.514Z,1.90
2019-05-12T07:05:50.303Z,2.90
2019-05-12T07:06:56.160Z,2.70
2019-05-12T07:07:41.736Z,2.13
2019-05-12T07:07:50.340Z,2.20
2019-05-12T07:09:02.285Z,2.30
2019-05-12T07:09:53.747Z,2.30
2019-05-12T07:10:11.640Z,2.10
2019-05-12T07:10:59.782Z,2.20
2019-05-12T07:12:01.765Z,3.00
2019-05-12T07:12:43.620Z,2.30
2019-05-12T07:12:58.825Z,2.60
2019-05-12T07:14:01.292Z,2.50
2019-05-12T07:14:55.626Z,2.60
2019-05-12T07:15:05.490Z,1.67
2019-05-12T07:15:50.485Z,2.20
2019-05-12T07:16:55.055Z,2.40
2019-05-12T07:17:49.757Z,2.67
2019-05-12T07:17:50.519Z,2.90
2019-05-12T07:18:50.542Z,2.70
2019-05-12T07:19:56.354Z,2.60
2019-05-12T07:20:16.147Z,2.43
2019-05-12T07:20:50.584Z,2.80
2019-05-12T07:21:55.405Z,2.40
2019-05-12T07:22:48.617Z,2.57
2019-05-12T07:22:50.613Z,2.90
2019-05-12T07:23:50.629Z,2.90
2019-05-12T07:24:52.803Z,2.70
2019-05-12T07:25:15.515Z,2.50
2019-05-12T07:25:50.660Z,3.00
2019-05-12T07:26:56.320Z,2.50
2019-05-12T07:27:47.254Z,2.10
2019-05-12T07:27:54.905Z,3.20
2019-05-12T07:28:50.742Z,2.50
2019-05-12T07:29:50.742Z,2.50
2019-05-12T07:30:16.359Z,2.40
2019-05-12T07:30:50.753Z,2.30
2019-05-12T07:31:50.780Z,2.90
2019-05-12T07:32:45.346Z,2.57
2019-05-12T07:32:51.233Z,2.70
2019-05-12T07:33:54.006Z,2.60
2019-05-12T07:34:50.831Z,2.50
2019-05-12T07:35:14.742Z,2.50
2019-05-12T07:35:53.465Z,2.50
2019-05-12T07:36:50.873Z,3.40
2019-05-12T07:37:43.856Z,2.23
2019-05-12T07:37:50.891Z,2.50
2019-05-12T07:38:55.853Z,2.10
2019-05-12T07:39:50.927Z,2.40
2019-05-12T07:40:13.876Z,1.30
2019-05-12T07:40:51.027Z,2.10
2019-05-12T07:41:52.164Z,2.20
2019-05-12T07:42:44.593Z,1.30
2019-05-12T07:42:50.999Z,1.70
2019-05-12T07:43:56.693Z,1.90
2019-05-12T07:44:51.021Z,1.70
2019-05-12T07:45:20.498Z,1.40
2019-05-12T07:45:53.938Z,1.90
2019-05-12T07:46:51.068Z,1.90
2019-05-12T07:47:44.967Z,1.60
2019-05-12T07:47:51.075Z,1.90
2019-05-12T07:48:51.105Z,1.90
2019-05-12T07:49:53.610Z,1.90
2019-05-12T07:50:20.691Z,1.30
2019-05-12T07:50:56.458Z,1.40
2019-05-12T07:51:51.215Z,1.70
2019-05-12T07:52:48.977Z,1.23
2019-05-12T07:52:51.223Z,1.60
2019-05-12T07:53:55.390Z,1.40
2019-05-12T07:54:53.713Z,1.70
2019-05-12T07:55:18.054Z,1.60
2019-05-12T07:55:53.180Z,1.50
2019-05-12T07:56:53.805Z,1.40
2019-05-12T07:57:55.406Z,1.17
2019-05-12T07:57:57.896Z,1.50
2019-05-12T07:58:56.496Z,1.50
2019-05-12T07:59:51.300Z,1.80
2019-05-12T08:00:22.627Z,1.43
2019-05-12T08:00:53.944Z,1.60
2019-05-12T08:01:54.332Z,1.80
2019-05-12T08:02:48.271Z,1.57
2019-05-12T08:02:53.557Z,1.40
2019-05-12T08:03:57.329Z,1.60
2019-05-12T08:04:51.399Z,1.70
2019-05-12T08:05:19.836Z,1.10
2019-05-12T08:05:56.343Z,1.60
2019-05-12T08:06:53.688Z,1.50
2019-05-12T08:07:50.343Z,1.60
2019-05-12T08:07:53.452Z,1.50
2019-05-12T08:08:58.147Z,1.50
2019-05-12T08:09:53.545Z,1.60
2019-05-12T08:10:20.006Z,1.03
2019-05-12T08:10:55.661Z,1.70
2019-05-12T08:11:53.909Z,1.40
2019-05-12T08:12:51.100Z,1.10
2019-05-12T08:12:59.566Z,1.50
2019-05-12T08:13:54.103Z,1.60
2019-05-12T08:14:51.604Z,1.70
2019-05-12T08:15:19.318Z,1.20
2019-05-12T08:15:55.604Z,1.70
2019-05-12T08:16:54.112Z,1.40
2019-05-12T08:17:49.306Z,1.40
2019-05-12T08:17:55.306Z,1.40
2019-05-12T08:18:53.491Z,1.30
2019-05-12T08:19:53.618Z,1.50
2019-05-12T08:20:18.755Z,1.17
2019-05-12T08:20:53.779Z,1.50
2019-05-12T08:21:53.613Z,1.50
2019-05-12T08:22:47.675Z,1.80
2019-05-12T08:22:54.014Z,1.50
2019-05-12T08:23:53.450Z,1.50
2019-05-12T08:24:53.776Z,1.70
2019-05-12T08:25:18.796Z,1.13
2019-05-12T08:25:53.838Z,1.70
2019-05-12T08:26:59.706Z,1.70
2019-05-12T08:27:50.238Z,1.30
2019-05-12T08:27:59.380Z,1.80
2019-05-12T08:28:53.541Z,1.40
2019-05-12T08:30:00.834Z,1.40
2019-05-12T08:30:20.109Z,0.93
2019-05-12T08:30:52.708Z,1.50
2019-05-12T08:31:54.617Z,1.40
2019-05-12T08:32:49.011Z,1.10
2019-05-12T08:32:56.344Z,1.60
2019-05-12T08:33:53.787Z,1.30
2019-05-12T08:34:54.134Z,1.50
2019-05-12T08:35:25.834Z,1.10
2019-05-12T08:35:52.020Z,1.40
2019-05-12T08:36:56.725Z,2.10
2019-05-12T08:37:48.564Z,1.30
2019-05-12T08:37:54.332Z,1.40
2019-05-12T08:38:53.634Z,1.70
2019-05-12T08:40:02.174Z,4.90
2019-05-12T08:40:17.534Z,1.40
2019-05-12T08:40:54.205Z,2.30
2019-05-12T08:41:53.483Z,2.80
2019-05-12T08:42:46.553Z,1.57
2019-05-12T08:42:53.993Z,2.00
2019-05-12T08:43:57.884Z,1.30
2019-05-12T08:44:54.117Z,1.70
2019-05-12T08:45:25.068Z,1.40
2019-05-12T08:45:53.596Z,1.70
2019-05-12T08:46:56.358Z,1.30
2019-05-12T08:47:46.041Z,1.10
2019-05-12T08:47:54.154Z,1.20
2019-05-12T08:48:57.840Z,1.40
2019-05-12T08:49:58.292Z,1.90
2019-05-12T08:50:15.063Z,1.20
2019-05-12T08:50:54.532Z,1.50
2019-05-12T08:51:55.754Z,1.50
2019-05-12T08:52:44.417Z,1.33
2019-05-12T08:52:53.838Z,1.50
2019-05-12T08:53:53.921Z,1.60
2019-05-12T08:54:53.658Z,1.60
2019-05-12T08:55:16.358Z,1.60
2019-05-12T08:55:53.843Z,1.80
2019-05-12T08:56:59.355Z,1.50
2019-05-12T08:57:49.382Z,1.10
2019-05-12T08:57:54.192Z,1.40
2019-05-12T08:58:54.358Z,1.20
2019-05-12T08:59:54.596Z,1.30
2019-05-12T09:00:14.850Z,1.50
2019-05-12T09:00:54.747Z,1.50
2019-05-12T09:01:54.018Z,1.40
2019-05-12T09:02:48.855Z,1.03
2019-05-12T09:02:53.930Z,1.30
2019-05-12T09:03:53.349Z,1.60
2019-05-12T09:04:55.559Z,1.10
2019-05-12T09:05:14.470Z,0.90
2019-05-12T09:05:53.688Z,1.40
2019-05-12T09:06:56.383Z,1.30
2019-05-12T09:07:43.703Z,1.10
2019-05-12T09:07:54.072Z,1.40
2019-05-12T09:08:54.229Z,1.60
2019-05-12T09:09:53.343Z,1.30
2019-05-12T09:10:14.292Z,0.80
2019-05-12T09:10:55.348Z,1.60
2019-05-12T09:11:54.213Z,1.20
2019-05-12T09:12:44.256Z,1.00
2019-05-12T09:12:54.156Z,1.40
2019-05-12T09:14:00.196Z,1.30
2019-05-12T09:14:54.569Z,1.50
2019-05-12T09:15:13.709Z,1.07
2019-05-12T09:15:54.139Z,1.50
2019-05-12T09:16:53.712Z,1.10
2019-05-12T09:17:52.227Z,1.17
2019-05-12T09:17:56.878Z,1.30
2019-05-12T09:18:55.142Z,1.70
2019-05-12T09:19:54.986Z,1.60
2019-05-12T09:20:13.860Z,1.13
2019-05-12T09:20:55.503Z,1.20
2019-05-12T09:21:54.217Z,1.30
2019-05-12T09:22:43.353Z,0.90
2019-05-12T09:23:00.663Z,1.30
2019-05-12T09:23:55.854Z,1.40
2019-05-12T09:24:53.413Z,1.30
2019-05-12T09:25:14.332Z,1.40
2019-05-12T09:25:53.721Z,1.40
2019-05-12T09:26:53.842Z,1.40
2019-05-12T09:27:47.988Z,1.20
2019-05-12T09:27:54.241Z,1.60
2019-05-12T09:28:54.306Z,1.50
2019-05-12T09:29:53.995Z,2.00
2019-05-12T09:30:14.245Z,1.90
2019-05-12T09:30:54.354Z,1.60